Time;durP1;ratioP1;P1;durP2;ratioP2;P2;SDS_P1;SDS_P2;PMS_P1;PMS_P2;Temp;Humidity;BMP_temperature;BMP_pressure;BME280_temperature;BME280_humidity;BME280_pressure;Samples;Min_cycle;Max_cycle;Signal;HPM_P1;HPM_P2
2023/01/16 00:00:07;;;;;;;0.30;0.30;;;2.70;97.80;;;;;;5127363;27;20550;-67
2023/01/16 00:02:34;;;;;;;0.38;0.30;;;2.80;97.80;;;;;;5128418;27;20590;-67
2023/01/16 00:05:01;;;;;;;0.30;0.20;;;2.80;99.90;;;;;;5129232;27;20204;-69
2023/01/16 00:07:28;;;;;;;0.30;0.20;;;2.70;97.80;;;;;;5128421;27;20217;-67
2023/01/16 00:09:54;;;;;;;0.30;0.30;;;2.80;98.00;;;;;;5128364;27;20276;-67
2023/01/16 00:12:22;;;;;;;0.30;0.20;;;2.70;99.90;;;;;;5127668;27;20228;-67
2023/01/16 00:14:49;;;;;;;0.30;0.25;;;2.70;99.90;;;;;;5129231;27;20288;-68
2023/01/16 00:17:16;;;;;;;0.30;0.30;;;2.80;98.30;;;;;;5128234;27;20232;-67
2023/01/16 00:19:43;;;;;;;0.30;0.20;;;2.70;97.90;;;;;;5127396;27;20197;-69
2023/01/16 00:22:10;;;;;;;0.50;0.40;;;2.80;98.20;;;;;;5127979;27;20220;-68
2023/01/16 00:24:36;;;;;;;0.40;0.30;;;2.90;98.00;;;;;;5128551;27;20284;-70
2023/01/16 00:27:03;;;;;;;0.40;0.40;;;2.90;98.00;;;;;;5128222;27;20204;-67
2023/01/16 00:29:31;;;;;;;1.05;0.52;;;2.90;98.00;;;;;;5127554;27;20201;-69
2023/01/16 00:31:58;;;;;;;0.40;0.35;;;2.80;99.90;;;;;;5126664;27;20221;-68
2023/01/16 00:34:25;;;;;;;0.30;0.20;;;2.90;97.90;;;;;;5127439;27;20215;-68
2023/01/16 00:36:52;;;;;;;0.50;0.40;;;2.90;97.80;;;;;;5122851;27;20225;-68
2023/01/16 00:39:18;;;;;;;0.30;0.20;;;2.90;97.80;;;;;;5116172;27;20198;-70
2023/01/16 00:41:45;;;;;;;0.40;0.30;;;2.80;97.80;;;;;;5118678;27;20312;-68
2023/01/16 00:44:12;;;;;;;0.40;0.40;;;2.80;97.80;;;;;;5128052;27;20192;-67
2023/01/16 00:46:40;;;;;;;0.30;0.30;;;2.80;97.80;;;;;;5127271;27;20225;-67
2023/01/16 00:49:07;;;;;;;0.77;0.77;;;2.80;99.90;;;;;;5127330;27;20193;-67
2023/01/16 00:51:33;;;;;;;0.35;0.35;;;2.80;97.80;;;;;;5127302;27;20236;-68
2023/01/16 00:54:00;;;;;;;0.50;0.50;;;2.80;98.10;;;;;;5128009;27;20198;-67
2023/01/16 00:56:27;;;;;;;0.30;0.30;;;2.80;98.00;;;;;;5127872;27;20231;-69
2023/01/16 00:58:54;;;;;;;0.30;0.30;;;2.80;99.90;;;;;;5127175;27;20201;-68
2023/01/16 01:01:21;;;;;;;0.30;0.30;;;2.80;97.80;;;;;;5126816;27;20253;-71
2023/01/16 01:03:49;;;;;;;0.30;0.30;;;2.80;98.00;;;;;;5128479;27;20579;-67
2023/01/16 01:06:16;;;;;;;0.30;0.20;;;2.80;98.10;;;;;;5126693;27;20314;-69
2023/01/16 01:08:42;;;;;;;0.30;0.20;;;2.80;99.90;;;;;;5126888;27;20208;-66
2023/01/16 01:11:11;;;;;;;0.30;0.28;;;2.80;98.10;;;;;;5127669;27;20229;-69
2023/01/16 01:13:38;;;;;;;0.30;0.30;;;2.80;97.80;;;;;;5127272;27;20193;-68
2023/01/16 01:16:05;;;;;;;0.40;0.40;;;2.80;98.00;;;;;;5127253;27;20232;-67
2023/01/16 01:18:32;;;;;;;2.70;0.70;;;2.80;97.90;;;;;;5129779;27;20208;-67
2023/01/16 01:21:00;;;;;;;0.30;0.30;;;2.80;99.90;;;;;;5108726;27;20910;-69
2023/01/16 01:23:27;;;;;;;0.40;0.40;;;2.80;97.90;;;;;;5118660;27;20192;-67
2023/01/16 01:25:54;;;;;;;0.47;0.35;;;2.60;99.90;;;;;;5127938;27;20229;-68
2023/01/16 01:28:21;;;;;;;0.30;0.30;;;2.80;97.70;;;;;;5121153;27;20193;-67
2023/01/16 01:30:48;;;;;;;0.40;0.28;;;2.80;97.80;;;;;;5107176;28;20977;-67
2023/01/16 01:33:15;;;;;;;0.30;0.25;;;2.80;97.90;;;;;;5113789;27;20318;-68
2023/01/16 01:35:42;;;;;;;0.30;0.20;;;2.80;97.90;;;;;;5111509;27;21192;-67
2023/01/16 01:38:10;;;;;;;0.30;0.20;;;2.70;97.80;;;;;;5114588;27;20201;-68
2023/01/16 01:40:36;;;;;;;0.40;0.40;;;2.60;97.90;;;;;;5112501;27;20221;-68
2023/01/16 01:43:03;;;;;;;0.30;0.20;;;2.60;98.00;;;;;;5121894;27;20208;-67
2023/01/16 01:45:32;;;;;;;0.30;0.30;;;2.60;98.10;;;;;;5107277;28;20217;-68
2023/01/16 01:48:05;;;;;;;0.30;0.20;;;2.70;98.20;;;;;;5107818;27;20660;-68
2023/01/16 01:50:41;;;;;;;1.15;0.70;;;2.60;98.10;;;;;;5123774;27;20319;-66
2023/01/16 01:53:13;;;;;;;0.30;0.20;;;2.60;98.20;;;;;;5117813;27;20193;-68
2023/01/16 01:55:42;;;;;;;0.43;0.43;;;1.80;99.90;;;;;;5127359;27;20241;-69
2023/01/16 01:58:10;;;;;;;0.30;0.30;;;2.60;98.20;;;;;;5126151;27;20207;-67
2023/01/16 02:00:36;;;;;;;0.30;0.30;;;2.70;98.10;;;;;;5126070;27;20223;-67
2023/01/16 02:03:07;;;;;;;0.95;0.95;;;2.60;98.10;;;;;;5124220;27;20208;-67
2023/01/16 02:05:40;;;;;;;0.75;0.40;;;2.60;98.30;;;;;;5126169;27;20221;-67
2023/01/16 02:08:07;;;;;;;0.47;0.40;;;2.60;98.20;;;;;;5126824;27;20212;-68
2023/01/16 02:10:41;;;;;;;1.40;0.52;;;2.60;99.90;;;;;;5127237;27;20229;-67
2023/01/16 02:13:08;;;;;;;0.30;0.20;;;2.50;98.10;;;;;;5118342;27;20763;-68
2023/01/16 02:19:14;;;;;;;2.58;1.20;;;2.50;98.20;;;;;;5112867;27;20217;-68
2023/01/16 02:21:54;;;;;;;1.23;0.45;;;2.80;99.90;;;;;;5098375;27;20709;-67
2023/01/16 02:24:50;;;;;;;0.30;0.20;;;2.60;98.40;;;;;;5124714;28;20261;-68
2023/01/16 02:27:43;;;;;;;1.00;1.00;;;2.60;98.20;;;;;;5123099;28;20212;-68
2023/01/16 02:30:23;;;;;;;0.30;0.30;;;2.70;98.10;;;;;;5124154;28;20193;-70
2023/01/16 02:33:04;;;;;;;0.30;0.30;;;2.60;98.10;;;;;;5123751;28;20224;-68
2023/01/16 02:35:48;;;;;;;0.30;0.30;;;2.60;98.10;;;;;;5125583;28;20217;-68
2023/01/16 02:38:28;;;;;;;0.35;0.35;;;2.60;98.10;;;;;;5120252;28;20676;-67
2023/01/16 02:41:03;;;;;;;0.30;0.30;;;2.60;98.20;;;;;;5123004;28;20995;-67
2023/01/16 02:43:37;;;;;;;0.30;0.30;;;2.70;98.20;;;;;;5125651;28;20196;-68
2023/01/16 02:46:15;;;;;;;0.30;0.30;;;2.60;98.10;;;;;;5125472;28;20753;-68
2023/01/16 02:48:51;;;;;;;0.30;0.30;;;2.60;98.30;;;;;;5124432;28;20193;-67
2023/01/16 02:51:30;;;;;;;0.30;0.30;;;2.60;98.30;;;;;;5123095;28;20656;-68
2023/01/16 02:54:03;;;;;;;0.30;0.22;;;2.50;98.60;;;;;;5124162;28;20723;-70
2023/01/16 02:56:38;;;;;;;0.30;0.30;;;2.50;98.50;;;;;;5125135;28;20735;-69
2023/01/16 02:59:06;;;;;;;0.30;0.20;;;2.50;99.90;;;;;;5125349;28;20224;-67
2023/01/16 03:01:35;;;;;;;0.30;0.30;;;2.50;98.60;;;;;;5125031;28;20850;-69
2023/01/16 03:04:40;;;;;;;0.45;0.45;;;2.40;98.50;;;;;;5126331;28;20595;-68
2023/01/16 03:07:38;;;;;;;0.30;0.20;;;2.40;98.60;;;;;;5124033;28;20227;-67
2023/01/16 03:10:21;;;;;;;0.30;0.30;;;2.40;98.70;;;;;;5055262;28;20245;-67
2023/01/16 03:12:57;;;;;;;0.30;0.30;;;2.30;99.90;;;;;;5124814;28;20300;-68
2023/01/16 03:15:30;;;;;;;0.40;0.40;;;2.30;98.80;;;;;;5123661;28;20217;-70
2023/01/16 03:18:09;;;;;;;0.30;0.30;;;2.30;98.80;;;;;;5123624;28;20251;-68
2023/01/16 03:20:49;;;;;;;0.30;0.30;;;2.30;98.80;;;;;;5109707;28;20296;-67
2023/01/16 03:23:28;;;;;;;0.30;0.20;;;2.40;98.90;;;;;;5127069;28;20606;-68
2023/01/16 03:26:01;;;;;;;0.30;0.20;;;2.40;98.60;;;;;;5126232;28;20235;-67
2023/01/16 03:28:40;;;;;;;0.40;0.30;;;2.30;98.70;;;;;;5125754;28;20546;-67
2023/01/16 03:31:13;;;;;;;0.30;0.20;;;2.30;98.80;;;;;;5127684;27;20211;-68
2023/01/16 03:33:52;;;;;;;0.30;0.20;;;2.10;98.70;;;;;;5130475;27;20193;-67
2023/01/16 03:36:26;;;;;;;0.30;0.20;;;2.30;99.90;;;;;;5129408;27;20304;-68
2023/01/16 03:38:56;;;;;;;0.30;0.20;;;2.00;99.90;;;;;;5118230;27;20744;-67
2023/01/16 03:41:27;;;;;;;0.40;0.40;;;2.20;99.00;;;;;;5118875;27;20322;-68
2023/01/16 03:44:01;;;;;;;0.35;0.35;;;2.20;99.00;;;;;;5130660;27;20198;-67
2023/01/16 03:46:32;;;;;;;0.30;0.30;;;2.10;99.00;;;;;;5129610;27;20227;-70
2023/01/16 03:49:05;;;;;;;0.40;0.30;;;2.10;99.00;;;;;;5129263;27;20204;-66
2023/01/16 03:51:40;;;;;;;0.30;0.30;;;2.10;99.00;;;;;;5129379;27;20228;-68
2023/01/16 03:54:17;;;;;;;0.60;0.55;;;2.10;98.90;;;;;;5130773;27;20204;-67
2023/01/16 03:56:50;;;;;;;3.25;1.77;;;2.10;98.90;;;;;;5129541;27;20232;-67
2023/01/16 03:59:19;;;;;;;0.30;0.22;;;2.20;99.10;;;;;;5128706;27;20198;-69
2023/01/16 04:01:53;;;;;;;0.30;0.28;;;2.20;98.90;;;;;;5129084;27;20245;-68
2023/01/16 04:04:25;;;;;;;0.40;0.40;;;2.20;98.90;;;;;;5130482;27;20578;-69
2023/01/16 04:07:00;;;;;;;0.40;0.40;;;2.20;98.90;;;;;;5128806;27;20225;-69
2023/01/16 04:09:35;;;;;;;0.30;0.30;;;2.20;98.90;;;;;;5129317;27;20192;-67
2023/01/16 04:12:04;;;;;;;0.57;0.57;;;2.10;98.70;;;;;;5128985;27;20212;-67
2023/01/16 04:14:34;;;;;;;0.40;0.40;;;2.10;98.80;;;;;;5109977;28;20205;-67
2023/01/16 04:17:01;;;;;;;0.30;0.20;;;2.10;98.80;;;;;;5123271;27;20261;-67
2023/01/16 04:19:29;;;;;;;0.40;0.32;;;2.00;99.90;;;;;;5129219;27;20217;-68
2023/01/16 04:21:57;;;;;;;0.60;0.40;;;2.10;98.80;;;;;;5128685;27;20721;-69
2023/01/16 04:24:24;;;;;;;0.57;0.52;;;2.10;98.70;;;;;;5129366;27;20284;-67
2023/01/16 04:26:51;;;;;;;0.30;0.30;;;2.10;99.10;;;;;;5128363;27;20229;-68
2023/01/16 04:29:18;;;;;;;0.80;0.50;;;4.60;99.90;;;;;;5128626;27;20258;-70
2023/01/16 04:31:45;;;;;;;0.30;0.30;;;2.10;98.80;;;;;;5127286;27;20316;-68
2023/01/16 04:34:12;;;;;;;1.10;0.77;;;2.10;98.90;;;;;;5129943;27;20197;-68
2023/01/16 04:36:39;;;;;;;0.30;0.25;;;2.00;98.80;;;;;;5125287;27;20220;-69
2023/01/16 04:39:07;;;;;;;0.40;0.30;;;2.10;98.90;;;;;;5124364;27;20827;-68
2023/01/16 04:41:37;;;;;;;0.40;0.30;;;2.00;98.70;;;;;;5127353;27;20252;-68
2023/01/16 04:44:05;;;;;;;0.30;0.30;;;2.00;98.90;;;;;;5129425;27;20208;-67
2023/01/16 04:46:32;;;;;;;0.30;0.30;;;2.00;98.90;;;;;;5128575;27;20243;-67
2023/01/16 04:48:59;;;;;;;0.40;0.30;;;1.90;98.90;;;;;;5128623;27;20215;-69
2023/01/16 04:51:26;;;;;;;0.30;0.30;;;2.00;98.90;;;;;;5127391;27;20231;-67
2023/01/16 04:53:53;;;;;;;0.30;0.30;;;2.00;98.70;;;;;;5129513;27;20195;-67
2023/01/16 04:56:21;;;;;;;0.30;0.20;;;2.00;98.60;;;;;;5128518;27;20292;-68
2023/01/16 04:58:49;;;;;;;0.30;0.30;;;2.20;99.90;;;;;;5127940;27;20228;-67
2023/01/16 05:01:17;;;;;;;0.30;0.30;;;2.00;98.80;;;;;;5118683;27;20781;-70
2023/01/16 05:03:43;;;;;;;0.40;0.40;;;2.00;98.80;;;;;;5125215;27;20197;-68
2023/01/16 05:06:10;;;;;;;0.30;0.28;;;2.10;98.70;;;;;;5127650;27;20219;-67
2023/01/16 05:08:37;;;;;;;5.32;0.60;;;2.00;98.50;;;;;;5127511;27;20200;-68
2023/01/16 05:11:04;;;;;;;1.73;0.80;;;2.00;98.60;;;;;;5128416;27;20243;-69
2023/01/16 05:13:32;;;;;;;0.30;0.20;;;2.10;98.70;;;;;;5128566;27;20656;-69
2023/01/16 05:15:59;;;;;;;0.30;0.30;;;2.10;98.60;;;;;;5128547;27;20217;-70
2023/01/16 05:18:26;;;;;;;0.30;0.20;;;2.00;98.60;;;;;;5126939;27;20219;-69
2023/01/16 05:20:53;;;;;;;0.30;0.28;;;2.00;98.80;;;;;;5128667;27;20850;-69
2023/01/16 05:23:20;;;;;;;0.32;0.32;;;2.10;98.70;;;;;;5128320;27;20195;-68
2023/01/16 05:25:48;;;;;;;0.30;0.30;;;2.10;98.40;;;;;;5127732;27;20252;-69
2023/01/16 05:28:15;;;;;;;0.30;0.20;;;2.10;98.40;;;;;;5126533;27;20221;-69
2023/01/16 05:30:43;;;;;;;0.30;0.30;;;2.10;98.30;;;;;;5128250;27;20652;-69
2023/01/16 05:33:10;;;;;;;0.30;0.30;;;2.10;98.40;;;;;;5126729;27;20212;-70
2023/01/16 05:35:36;;;;;;;0.43;0.43;;;2.20;98.10;;;;;;5128121;27;20694;-69
2023/01/16 05:38:03;;;;;;;0.30;0.20;;;2.20;98.00;;;;;;5113209;27;20765;-69
2023/01/16 05:40:30;;;;;;;0.30;0.30;;;2.20;97.90;;;;;;5115512;27;20303;-70
2023/01/16 05:42:57;;;;;;;0.65;0.55;;;2.30;97.80;;;;;;5112171;27;20724;-70
2023/01/16 05:45:24;;;;;;;0.30;0.30;;;2.40;98.10;;;;;;5114750;27;20214;-70
2023/01/16 05:47:53;;;;;;;0.38;0.30;;;2.40;99.90;;;;;;5114744;27;20201;-69
2023/01/16 05:50:20;;;;;;;0.30;0.30;;;2.40;97.70;;;;;;5107534;27;20674;-69
2023/01/16 05:52:47;;;;;;;1.95;0.57;;;2.40;97.40;;;;;;5111107;27;20679;-70
2023/01/16 05:55:13;;;;;;;0.30;0.20;;;2.50;97.20;;;;;;5120856;27;20574;-69
2023/01/16 05:57:40;;;;;;;0.30;0.30;;;3.20;99.90;;;;;;5117115;27;20969;-69
2023/01/16 06:00:08;;;;;;;0.30;0.30;;;2.40;99.90;;;;;;5114117;27;20655;-69
2023/01/16 06:02:36;;;;;;;0.30;0.20;;;2.50;97.10;;;;;;5107302;28;20198;-69
2023/01/16 06:05:05;;;;;;;0.30;0.30;;;2.60;97.00;;;;;;5113474;27;20203;-68
2023/01/16 06:07:31;;;;;;;0.40;0.40;;;2.60;96.90;;;;;;5121253;27;20751;-68
2023/01/16 06:09:58;;;;;;;0.30;0.30;;;2.70;96.80;;;;;;5111547;27;20722;-69
2023/01/16 06:12:25;;;;;;;0.85;0.85;;;2.60;97.00;;;;;;5116318;27;20225;-70
2023/01/16 06:14:52;;;;;;;0.30;0.30;;;2.60;97.10;;;;;;5107093;28;20209;-66
2023/01/16 06:17:19;;;;;;;0.30;0.20;;;2.60;97.00;;;;;;5112655;27;20228;-69
2023/01/16 06:19:46;;;;;;;0.50;0.50;;;2.50;96.80;;;;;;5120351;27;20193;-68
2023/01/16 06:22:14;;;;;;;0.50;0.35;;;2.60;96.90;;;;;;5119588;27;20313;-68
2023/01/16 06:24:42;;;;;;;0.30;0.30;;;2.70;96.90;;;;;;5108946;28;20198;-68
2023/01/16 06:27:09;;;;;;;0.50;0.30;;;2.60;96.80;;;;;;5107034;28;20312;-69
2023/01/16 06:29:38;;;;;;;4.68;1.00;;;2.60;96.90;;;;;;5108260;28;20230;-70
2023/01/16 06:32:05;;;;;;;0.40;0.30;;;2.50;97.00;;;;;;5109259;28;20813;-69
2023/01/16 06:34:32;;;;;;;0.30;0.20;;;2.60;97.10;;;;;;5113000;28;20197;-70
2023/01/16 06:36:59;;;;;;;0.30;0.20;;;2.60;97.10;;;;;;5126326;28;20711;-69
2023/01/16 06:39:27;;;;;;;0.30;0.30;;;2.60;97.20;;;;;;5117901;28;20240;-66
2023/01/16 06:41:54;;;;;;;0.50;0.50;;;2.60;99.90;;;;;;5121672;28;20645;-68
2023/01/16 06:44:20;;;;;;;0.30;0.20;;;2.40;97.50;;;;;;5127193;28;20659;-68
2023/01/16 06:46:47;;;;;;;0.73;0.70;;;2.40;97.40;;;;;;5126395;28;20539;-67
2023/01/16 06:49:14;;;;;;;1.10;1.00;;;2.50;97.30;;;;;;5127571;28;20549;-67
2023/01/16 06:51:42;;;;;;;0.30;0.30;;;2.60;97.20;;;;;;5126527;28;20221;-68
2023/01/16 06:54:09;;;;;;;0.30;0.30;;;2.50;99.90;;;;;;5127747;28;20905;-67
2023/01/16 06:56:38;;;;;;;0.60;0.40;;;2.40;97.50;;;;;;5125994;28;20223;-68
2023/01/16 06:59:04;;;;;;;0.47;0.30;;;2.50;97.60;;;;;;5125175;28;20224;-67
2023/01/16 07:01:31;;;;;;;0.43;0.43;;;2.40;97.60;;;;;;5126015;28;20725;-69
2023/01/16 07:03:58;;;;;;;0.30;0.20;;;2.40;97.90;;;;;;5126765;27;20272;-67
2023/01/16 07:06:25;;;;;;;0.93;0.82;;;2.40;97.80;;;;;;5130295;27;20213;-67
2023/01/16 07:08:53;;;;;;;0.60;0.45;;;2.30;99.90;;;;;;5123526;27;20223;-68
2023/01/16 07:11:20;;;;;;;0.43;0.40;;;2.40;97.70;;;;;;5124023;27;20205;-68
2023/01/16 07:13:48;;;;;;;0.40;0.40;;;2.40;97.40;;;;;;5123623;27;20711;-67
2023/01/16 07:24:36;;;;;;;0.75;0.75;;;2.50;97.50;;;;;;5129037;27;20671;-67
2023/01/16 07:27:08;;;;;;;0.77;0.77;;;2.50;97.20;;;;;;5109056;27;20226;-67
2023/01/16 07:29:38;;;;;;;3.70;0.80;;;2.50;97.40;;;;;;5124040;27;20566;-68
2023/01/16 07:32:05;;;;;;;0.45;0.43;;;2.50;97.20;;;;;;5126100;27;20213;-68
2023/01/16 07:34:32;;;;;;;0.55;0.55;;;2.50;97.20;;;;;;5126450;27;20201;-66
2023/01/16 07:36:58;;;;;;;0.50;0.40;;;3.00;99.90;;;;;;5118258;27;20251;-69
2023/01/16 07:39:25;;;;;;;0.57;0.35;;;2.40;97.40;;;;;;5113269;27;20225;-69
2023/01/16 07:41:52;;;;;;;0.30;0.30;;;2.50;97.40;;;;;;5125204;27;20317;-67
2023/01/16 07:44:19;;;;;;;0.30;0.20;;;2.60;99.90;;;;;;5112404;27;20194;-66
2023/01/16 07:46:47;;;;;;;0.40;0.30;;;2.50;97.20;;;;;;5110409;27;20783;-68
2023/01/16 07:49:14;;;;;;;0.40;0.40;;;2.60;97.10;;;;;;5109354;28;20202;-67
2023/01/16 07:51:40;;;;;;;0.52;0.35;;;2.60;97.10;;;;;;5109776;27;20226;-69
2023/01/16 07:54:09;;;;;;;0.55;0.55;;;2.60;97.10;;;;;;5123326;27;20209;-66
2023/01/16 07:56:35;;;;;;;0.35;0.35;;;2.60;97.20;;;;;;5127914;27;20642;-69
2023/01/16 07:59:02;;;;;;;0.40;0.30;;;2.60;99.90;;;;;;5116698;27;20210;-68
2023/01/16 08:01:29;;;;;;;0.30;0.30;;;2.60;97.10;;;;;;5121604;27;20221;-67
2023/01/16 08:03:57;;;;;;;0.70;0.60;;;2.70;97.00;;;;;;5121808;27;20545;-67
2023/01/16 08:06:24;;;;;;;0.32;0.32;;;2.80;96.80;;;;;;5121177;27;20225;-67
2023/01/16 08:08:51;;;;;;;0.30;0.20;;;2.80;99.90;;;;;;5120681;27;20220;-67
2023/01/16 08:11:36;;;;;;;0.30;0.20;;;2.70;96.70;;;;;;5119379;27;20252;-69
2023/01/16 08:14:04;;;;;;;0.38;0.38;;;2.70;96.90;;;;;;5116036;27;20592;-67
2023/01/16 08:16:31;;;;;;;0.47;0.40;;;2.80;96.80;;;;;;5120651;27;20283;-69
2023/01/16 08:18:59;;;;;;;0.45;0.43;;;2.90;99.90;;;;;;5127350;27;20235;-67
2023/01/16 08:21:27;;;;;;;0.30;0.20;;;2.80;96.60;;;;;;5127998;27;20300;-67
2023/01/16 08:23:54;;;;;;;0.47;0.47;;;2.90;96.40;;;;;;5112683;27;20413;-66
2023/01/16 08:26:20;;;;;;;0.38;0.38;;;2.90;96.30;;;;;;5110167;27;20222;-69
2023/01/16 08:28:48;;;;;;;1.02;1.02;;;2.90;96.50;;;;;;5123665;27;20286;-66
2023/01/16 08:31:15;;;;;;;0.30;0.20;;;2.90;96.40;;;;;;5117285;27;20251;-67
2023/01/16 08:33:44;;;;;;;0.50;0.43;;;3.00;96.10;;;;;;5109178;28;20625;-67
2023/01/16 08:36:15;;;;;;;0.30;0.20;;;3.30;99.90;;;;;;5112218;27;20252;-68
2023/01/16 08:38:42;;;;;;;0.30;0.30;;;3.10;99.90;;;;;;5117958;27;20219;-67
2023/01/16 08:51:21;;;;;;;1.35;1.25;;;3.10;95.60;;;;;;5122905;27;20313;-67
2023/01/16 08:52:11;;;;;;;0.60;0.40;;;3.20;99.90;;;;;;5080609;27;20289;-67
2023/01/16 08:54:38;;;;;;;0.30;0.30;;;3.30;94.90;;;;;;5126041;27;20246;-67
2023/01/16 08:57:05;;;;;;;0.30;0.20;;;3.40;94.60;;;;;;5109501;27;20218;-67
2023/01/16 08:59:33;;;;;;;0.40;0.40;;;3.30;94.40;;;;;;5106947;28;20232;-67
2023/01/16 09:02:01;;;;;;;0.47;0.47;;;3.30;94.50;;;;;;5108492;27;20237;-67
2023/01/16 09:04:28;;;;;;;0.40;0.30;;;3.30;94.70;;;;;;5128471;27;20727;-67
2023/01/16 09:06:55;;;;;;;0.40;0.30;;;3.40;94.60;;;;;;5128802;27;20357;-67
2023/01/16 09:09:24;;;;;;;0.82;0.45;;;3.40;94.90;;;;;;5127486;27;20288;-67
2023/01/16 09:14:39;;;;;;;0.30;0.30;;;3.40;94.30;;;;;;5110265;27;20198;-68
2023/01/16 09:17:07;;;;;;;3.30;1.77;;;3.50;94.20;;;;;;5121084;27;20217;-66
2023/01/16 09:19:34;;;;;;;3.42;1.65;;;3.60;94.00;;;;;;5107279;27;20316;-67
2023/01/16 09:22:02;;;;;;;1.02;0.93;;;3.60;93.40;;;;;;5124549;27;20217;-67
2023/01/16 09:24:30;;;;;;;1.55;1.45;;;3.50;99.70;;;;;;5127633;27;20217;-67
2023/01/16 09:26:57;;;;;;;0.40;0.30;;;3.40;99.00;;;;;;5127276;27;20722;-67
2023/01/16 09:29:23;;;;;;;0.30;0.20;;;3.60;93.20;;;;;;5127332;27;20213;-68
2023/01/16 09:31:50;;;;;;;0.30;0.30;;;3.70;93.00;;;;;;5127908;27;20218;-68
2023/01/16 09:34:17;;;;;;;0.30;0.30;;;3.70;93.00;;;;;;5127823;27;20253;-67
2023/01/16 09:36:44;;;;;;;2.35;0.40;;;3.60;93.30;;;;;;5125321;27;20240;-68
2023/01/16 09:39:11;;;;;;;0.40;0.40;;;3.70;92.70;;;;;;4992434;28;20278;-67
2023/01/16 09:44:34;;;;;;;0.30;0.20;;;3.70;92.90;;;;;;4985692;28;20206;-67
2023/01/16 09:47:02;;;;;;;0.30;0.30;;;3.80;92.90;;;;;;4999113;28;20241;-68
2023/01/16 09:49:33;;;;;;;0.40;0.40;;;3.90;92.40;;;;;;5002824;28;20205;-69
2023/01/16 10:00:27;;;;;;;0.30;0.20;;;4.10;91.20;;;;;;4985338;28;20238;-68
2023/01/16 10:02:54;;;;;;;0.30;0.20;;;4.20;91.10;;;;;;5003973;28;20277;-67
2023/01/16 10:05:24;;;;;;;0.30;0.30;;;4.10;91.30;;;;;;5004440;28;20311;-66
2023/01/16 10:07:59;;;;;;;0.30;0.20;;;4.10;91.20;;;;;;5004071;28;20635;-68
2023/01/16 10:10:42;;;;;;;0.30;0.22;;;4.30;90.60;;;;;;5003558;28;20228;-68
2023/01/16 10:13:24;;;;;;;0.30;0.20;;;4.30;90.80;;;;;;5002464;28;20197;-67
2023/01/16 10:15:59;;;;;;;0.30;0.20;;;4.20;90.50;;;;;;5004082;28;20225;-67
2023/01/16 10:18:36;;;;;;;0.30;0.20;;;4.20;91.10;;;;;;4986616;28;20228;-68
2023/01/16 10:21:23;;;;;;;0.30;0.30;;;4.30;90.00;;;;;;4984785;28;20236;-67
2023/01/16 10:23:54;;;;;;;0.65;0.35;;;4.30;88.40;;;;;;4984568;28;20212;-67
2023/01/16 10:26:28;;;;;;;0.40;0.38;;;4.40;87.90;;;;;;4992599;28;20221;-67
2023/01/16 10:29:05;;;;;;;0.57;0.30;;;4.40;88.10;;;;;;5001672;28;20220;-68
2023/01/16 10:31:38;;;;;;;1.15;1.05;;;4.40;88.00;;;;;;5003949;28;20225;-68
2023/01/16 10:34:11;;;;;;;0.30;0.20;;;4.40;86.50;;;;;;4985638;28;20295;-67
2023/01/16 10:36:43;;;;;;;0.55;0.55;;;4.40;86.60;;;;;;4991189;28;20222;-67
2023/01/16 10:39:13;;;;;;;0.50;0.50;;;4.60;90.70;;;;;;4991341;28;20230;-68
2023/01/16 10:50:07;;;;;;;0.30;0.20;;;4.70;85.10;;;;;;5005981;28;20237;-67
2023/01/16 10:52:34;;;;;;;0.30;0.25;;;4.80;90.90;;;;;;5005740;28;20231;-67
2023/01/16 10:55:01;;;;;;;3.70;2.50;;;4.90;94.20;;;;;;4997235;28;20196;-68
2023/01/16 10:57:28;;;;;;;0.40;0.38;;;4.80;85.80;;;;;;5006439;28;20794;-67
2023/01/16 11:00:02;;;;;;;0.60;0.40;;;4.80;85.10;;;;;;5005687;28;20713;-68
2023/01/16 11:02:33;;;;;;;0.90;0.90;;;5.10;90.60;;;;;;5005456;28;20756;-67
2023/01/16 11:05:01;;;;;;;2.50;1.35;;;4.80;86.30;;;;;;5007004;28;20292;-67
2023/01/16 11:07:29;;;;;;;0.43;0.43;;;4.90;87.30;;;;;;5006682;28;20240;-66
2023/01/16 11:09:57;;;;;;;0.30;0.30;;;4.90;87.10;;;;;;5005851;28;20205;-67
2023/01/16 11:18:30;;;;;;;0.75;0.50;;;5.00;89.10;;;;;;5001728;28;20859;-70
2023/01/16 11:21:00;;;;;;;0.52;0.52;;;5.10;89.90;;;;;;4985975;28;20273;-67
2023/01/16 11:23:34;;;;;;;0.40;0.40;;;5.00;93.30;;;;;;4987831;28;20639;-67
2023/01/16 11:26:00;;;;;;;0.50;0.50;;;5.20;91.00;;;;;;4987097;28;20248;-66
2023/01/16 11:28:30;;;;;;;0.65;0.65;;;5.20;91.50;;;;;;4997439;28;20231;-68
2023/01/16 11:31:01;;;;;;;2.15;0.90;;;5.20;91.80;;;;;;5006267;28;20275;-67
2023/01/16 11:33:34;;;;;;;0.50;0.40;;;5.20;92.30;;;;;;5005768;28;20213;-67
2023/01/16 11:36:03;;;;;;;1.58;0.65;;;5.20;92.10;;;;;;5006244;28;20225;-66
2023/01/16 11:38:33;;;;;;;0.40;0.35;;;5.20;92.30;;;;;;5079649;27;20727;-67
2023/01/16 11:41:03;;;;;;;0.43;0.40;;;5.20;92.20;;;;;;5123531;27;20300;-66
2023/01/16 11:46:31;;;;;;;0.40;0.30;;;5.20;92.80;;;;;;5129884;27;20622;-68
2023/01/16 11:49:01;;;;;;;0.90;0.90;;;5.20;92.40;;;;;;5109327;27;20280;-67
2023/01/16 11:51:30;;;;;;;0.60;0.60;;;5.20;92.40;;;;;;5114608;27;20228;-67
2023/01/16 11:53:59;;;;;;;0.30;0.20;;;5.30;92.40;;;;;;5119067;27;20670;-66
2023/01/16 11:56:47;;;;;;;0.50;0.30;;;5.30;97.90;;;;;;5115910;27;20345;-68
2023/01/16 11:59:40;;;;;;;0.30;0.20;;;5.40;92.40;;;;;;5124243;27;20252;-67
2023/01/16 12:02:21;;;;;;;0.60;0.60;;;5.90;95.10;;;;;;5129473;27;20224;-67
2023/01/16 12:07:47;;;;;;;0.88;0.50;;;5.50;92.70;;;;;;5129265;27;20205;-67
2023/01/16 12:10:25;;;;;;;0.40;0.40;;;5.50;92.70;;;;;;5120611;27;20207;-67
2023/01/16 12:15:56;;;;;;;1.85;0.88;;;5.50;93.10;;;;;;5126561;27;20636;-67
2023/01/16 12:18:35;;;;;;;0.45;0.45;;;5.60;93.10;;;;;;5125600;27;20197;-68
2023/01/16 12:21:03;;;;;;;0.88;0.88;;;5.70;93.00;;;;;;5129444;27;20229;-68
2023/01/16 12:23:58;;;;;;;0.40;0.32;;;5.70;95.10;;;;;;5129199;27;20208;-68
2023/01/16 12:26:29;;;;;;;0.70;0.65;;;5.70;93.10;;;;;;5129672;27;20229;-67
2023/01/16 12:29:11;;;;;;;1.13;0.40;;;5.80;93.10;;;;;;5108545;28;20292;-68
2023/01/16 12:31:53;;;;;;;0.80;0.75;;;5.80;95.60;;;;;;5108436;28;20217;-68
2023/01/16 12:34:42;;;;;;;0.80;0.73;;;5.80;93.40;;;;;;5125112;27;20630;-67
2023/01/16 12:37:22;;;;;;;0.30;0.20;;;5.90;93.20;;;;;;5123724;27;20230;-67
2023/01/16 12:39:55;;;;;;;0.30;0.30;;;5.90;93.20;;;;;;5115212;27;20225;-68
2023/01/16 12:45:29;;;;;;;0.30;0.20;;;6.00;93.20;;;;;;5110991;27;20201;-68
2023/01/16 12:48:09;;;;;;;2.05;1.08;;;6.00;93.20;;;;;;5120981;27;20231;-67
2023/01/16 12:50:50;;;;;;;0.30;0.20;;;5.90;99.30;;;;;;5128530;27;20244;-69
2023/01/16 12:53:47;;;;;;;0.60;0.60;;;6.00;93.10;;;;;;5129128;27;20556;-67
2023/01/16 12:56:31;;;;;;;0.93;0.63;;;6.10;92.90;;;;;;5110328;27;20235;-66
2023/01/16 12:59:03;;;;;;;1.95;1.65;;;5.90;98.30;;;;;;5126909;27;20197;-68
2023/01/16 13:01:34;;;;;;;0.77;0.75;;;6.10;92.50;;;;;;5128794;27;20217;-68
2023/01/16 13:04:08;;;;;;;0.70;0.60;;;6.10;92.80;;;;;;5128414;27;20205;-68
2023/01/16 13:06:42;;;;;;;1.60;0.77;;;6.20;92.90;;;;;;5128246;27;20225;-70
2023/01/16 13:09:19;;;;;;;0.30;0.30;;;6.20;92.60;;;;;;5109065;27;20199;-68
2023/01/16 13:14:42;;;;;;;1.45;0.77;;;6.30;92.60;;;;;;5108156;28;20222;-68
2023/01/16 13:17:13;;;;;;;1.33;0.30;;;6.30;93.10;;;;;;5126320;27;20217;-67
2023/01/16 13:19:41;;;;;;;0.30;0.30;;;6.30;92.60;;;;;;5127982;27;20243;-68
2023/01/16 13:22:20;;;;;;;0.35;0.35;;;4.90;97.20;;;;;;5128025;27;20228;-67
2023/01/16 13:24:53;;;;;;;0.30;0.22;;;6.40;92.50;;;;;;5128962;27;20205;-69
2023/01/16 13:27:26;;;;;;;0.50;0.50;;;6.40;92.20;;;;;;5128011;27;20223;-67
2023/01/16 13:29:59;;;;;;;0.43;0.43;;;6.50;92.10;;;;;;5128036;27;20239;-67
2023/01/16 13:32:30;;;;;;;0.50;0.50;;;6.40;97.20;;;;;;5127684;27;20231;-68
2023/01/16 13:35:02;;;;;;;1.63;0.60;;;6.50;92.20;;;;;;5128624;27;20201;-70
2023/01/16 13:37:49;;;;;;;0.93;0.40;;;6.60;92.10;;;;;;5123121;27;20285;-67
2023/01/16 13:40:34;;;;;;;0.30;0.20;;;6.70;91.70;;;;;;5124527;27;20231;-67
2023/01/16 13:45:49;;;;;;;0.60;0.60;;;6.70;91.80;;;;;;5127248;27;20690;-68
2023/01/16 13:48:19;;;;;;;1.38;0.88;;;6.70;91.40;;;;;;5127256;27;20207;-67
2023/01/16 13:50:51;;;;;;;3.70;2.85;;;6.60;91.50;;;;;;5127691;27;20229;-68
2023/01/16 13:53:22;;;;;;;6.10;1.25;;;6.60;91.40;;;;;;5128342;27;20193;-67
2023/01/16 13:55:50;;;;;;;2.38;1.77;;;6.60;91.10;;;;;;5107555;28;20233;-68
2023/01/16 13:58:21;;;;;;;1.27;0.77;;;6.60;91.10;;;;;;5124431;27;20655;-69
2023/01/16 14:00:57;;;;;;;1.48;1.15;;;6.60;91.20;;;;;;5127633;27;20315;-67
2023/01/16 14:03:25;;;;;;;0.40;0.32;;;6.60;93.10;;;;;;5127440;27;20207;-67
2023/01/16 14:05:54;;;;;;;1.50;0.40;;;6.50;90.80;;;;;;5127864;27;20278;-69
2023/01/16 14:11:34;;;;;;;0.30;0.20;;;6.50;91.00;;;;;;5127744;27;20220;-68
2023/01/16 14:17:21;;;;;;;0.40;0.35;;;6.40;91.00;;;;;;5107058;28;20234;-68
2023/01/16 14:19:57;;;;;;;1.67;0.30;;;6.30;91.00;;;;;;5125982;27;20232;-67
2023/01/16 14:25:23;;;;;;;0.30;0.20;;;6.30;91.00;;;;;;5126877;27;20573;-67
2023/01/16 14:27:55;;;;;;;2.97;2.25;;;6.30;91.50;;;;;;5127063;27;20962;-67
2023/01/16 14:30:26;;;;;;;1.40;1.30;;;6.10;91.60;;;;;;5126188;28;20270;-70